sensor_id;sensor_type;location;lat;lon;timestamp;temperature;humidity
62991;DHT22;49084;48.204;16.202;2023-02-28T00:00:17;0.30;99.90
62991;DHT22;49084;48.204;16.202;2023-02-28T00:02:44;0.20;99.90
62991;DHT22;49084;48.204;16.202;2023-02-28T00:05:12;0.10;99.90
62991;DHT22;49084;48.204;16.202;2023-02-28T00:07:38;0.10;99.90
62991;DHT22;49084;48.204;16.202;2023-02-28T00:10:05;0.00;99.90
62991;DHT22;49084;48.204;16.202;2023-02-28T00:12:33;-0.10;99.90
62991;DHT22;49084;48.204;16.202;2023-02-28T00:14:59;-0.10;99.90
62991;DHT22;49084;48.204;16.202;2023-02-28T00:17:24;-0.20;99.90
62991;DHT22;49084;48.204;16.202;2023-02-28T00:19:51;-0.20;99.90
62991;DHT22;49084;48.204;16.202;2023-02-28T00:22:18;-0.20;99.90
62991;DHT22;49084;48.204;16.202;2023-02-28T00:24:44;-0.30;99.90
62991;DHT22;49084;48.204;16.202;2023-02-28T00:27:10;-0.30;99.90
62991;DHT22;49084;48.204;16.202;2023-02-28T00:29:36;-0.30;99.90
62991;DHT22;49084;48.204;16.202;2023-02-28T00:32:03;-0.40;99.90
62991;DHT22;49084;48.204;16.202;2023-02-28T00:34:29;-0.40;99.90
62991;DHT22;49084;48.204;16.202;2023-02-28T00:36:54;-0.50;99.90
62991;DHT22;49084;48.204;16.202;2023-02-28T00:39:20;-0.50;99.90
62991;DHT22;49084;48.204;16.202;2023-02-28T00:41:45;-0.50;99.90
62991;DHT22;49084;48.204;16.202;2023-02-28T00:44:11;-0.50;99.90
62991;DHT22;49084;48.204;16.202;2023-02-28T00:46:37;-0.60;99.90
62991;DHT22;49084;48.204;16.202;2023-02-28T00:49:03;-0.60;99.90
62991;DHT22;49084;48.204;16.202;2023-02-28T00:51:28;-0.60;99.90
62991;DHT22;49084;48.204;16.202;2023-02-28T00:53:54;-0.10;99.90
62991;DHT22;49084;48.204;16.202;2023-02-28T00:56:20;-0.60;99.90
62991;DHT22;49084;48.204;16.202;2023-02-28T00:58:46;-0.70;99.90
62991;DHT22;49084;48.204;16.202;2023-02-28T01:01:11;-0.70;99.90
62991;DHT22;49084;48.204;16.202;2023-02-28T01:03:37;-0.70;99.90
62991;DHT22;49084;48.204;16.202;2023-02-28T01:06:04;-0.60;99.90
62991;DHT22;49084;48.204;16.202;2023-02-28T01:08:29;-0.70;99.90
62991;DHT22;49084;48.204;16.202;2023-02-28T01:10:56;-0.70;99.90
62991;DHT22;49084;48.204;16.202;2023-02-28T01:13:22;-0.70;99.90
62991;DHT22;49084;48.204;16.202;2023-02-28T01:15:54;-0.60;99.90
62991;DHT22;49084;48.204;16.202;2023-02-28T01:18:20;-0.60;99.90
62991;DHT22;49084;48.204;16.202;2023-02-28T01:20:46;-0.50;99.90
62991;DHT22;49084;48.204;16.202;2023-02-28T01:23:12;-0.40;99.90
62991;DHT22;49084;48.204;16.202;2023-02-28T01:25:38;-0.30;99.90
62991;DHT22;49084;48.204;16.202;2023-02-28T01:28:05;-0.40;99.90
62991;DHT22;49084;48.204;16.202;2023-02-28T01:30:32;-0.40;99.90
62991;DHT22;49084;48.204;16.202;2023-02-28T01:32:58;-0.40;99.90
62991;DHT22;49084;48.204;16.202;2023-02-28T01:35:23;-0.40;99.90
62991;DHT22;49084;48.204;16.202;2023-02-28T01:37:49;-0.30;99.90
62991;DHT22;49084;48.204;16.202;2023-02-28T01:40:15;-0.10;99.90
62991;DHT22;49084;48.204;16.202;2023-02-28T01:42:41;-0.20;99.90
62991;DHT22;49084;48.204;16.202;2023-02-28T01:47:49;-0.20;99.90
62991;DHT22;49084;48.204;16.202;2023-02-28T01:50:22;-0.10;99.90
62991;DHT22;49084;48.204;16.202;2023-02-28T01:52:49;-0.10;99.90
62991;DHT22;49084;48.204;16.202;2023-02-28T01:55:17;-0.10;99.90
62991;DHT22;49084;48.204;16.202;2023-02-28T01:57:48;-0.10;99.90
62991;DHT22;49084;48.204;16.202;2023-02-28T02:00:16;0.00;99.90
62991;DHT22;49084;48.204;16.202;2023-02-28T02:02:43;0.00;99.90
62991;DHT22;49084;48.204;16.202;2023-02-28T02:05:19;0.00;99.90
62991;DHT22;49084;48.204;16.202;2023-02-28T02:07:47;0.00;99.90
62991;DHT22;49084;48.204;16.202;2023-02-28T02:10:24;0.00;99.90
62991;DHT22;49084;48.204;16.202;2023-02-28T02:18:38;0.10;99.90
62991;DHT22;49084;48.204;16.202;2023-02-28T02:35:16;0.10;99.90
62991;DHT22;49084;48.204;16.202;2023-02-28T02:37:48;0.10;99.90
62991;DHT22;49084;48.204;16.202;2023-02-28T02:40:21;0.00;99.90
62991;DHT22;49084;48.204;16.202;2023-02-28T02:45:32;0.00;99.90
62991;DHT22;49084;48.204;16.202;2023-02-28T02:48:01;0.00;99.90
62991;DHT22;49084;48.204;16.202;2023-02-28T02:50:31;0.00;99.90
62991;DHT22;49084;48.204;16.202;2023-02-28T02:53:01;0.00;99.90
62991;DHT22;49084;48.204;16.202;2023-02-28T02:55:28;0.00;99.90
62991;DHT22;49084;48.204;16.202;2023-02-28T02:58:05;0.00;99.90
62991;DHT22;49084;48.204;16.202;2023-02-28T03:00:37;0.00;99.90
62991;DHT22;49084;48.204;16.202;2023-02-28T03:03:04;-0.10;99.90
62991;DHT22;49084;48.204;16.202;2023-02-28T03:05:46;-0.10;99.90
62991;DHT22;49084;48.204;16.202;2023-02-28T03:08:11;-0.10;99.90
62991;DHT22;49084;48.204;16.202;2023-02-28T03:10:42;-0.10;99.90
62991;DHT22;49084;48.204;16.202;2023-02-28T03:16:01;-0.20;99.90
62991;DHT22;49084;48.204;16.202;2023-02-28T03:18:54;-0.20;99.90
62991;DHT22;49084;48.204;16.202;2023-02-28T03:21:38;-0.30;99.90
62991;DHT22;49084;48.204;16.202;2023-02-28T03:24:18;-0.30;99.90
62991;DHT22;49084;48.204;16.202;2023-02-28T03:27:12;-0.40;99.90
62991;DHT22;49084;48.204;16.202;2023-02-28T03:29:50;-0.40;99.90
62991;DHT22;49084;48.204;16.202;2023-02-28T03:32:24;-0.50;99.90
62991;DHT22;49084;48.204;16.202;2023-02-28T03:35:16;-0.50;99.90
62991;DHT22;49084;48.204;16.202;2023-02-28T03:37:50;-0.50;99.90
62991;DHT22;49084;48.204;16.202;2023-02-28T03:40:21;-0.50;99.90
62991;DHT22;49084;48.204;16.202;2023-02-28T03:42:50;-0.50;99.90
62991;DHT22;49084;48.204;16.202;2023-02-28T03:45:24;-0.50;99.90
62991;DHT22;49084;48.204;16.202;2023-02-28T03:48:02;-0.50;99.90
62991;DHT22;49084;48.204;16.202;2023-02-28T03:50:39;-0.60;99.90
62991;DHT22;49084;48.204;16.202;2023-02-28T03:53:49;-0.70;99.90
62991;DHT22;49084;48.204;16.202;2023-02-28T03:56:22;-0.70;99.90
62991;DHT22;49084;48.204;16.202;2023-02-28T03:59:30;-0.80;99.90
62991;DHT22;49084;48.204;16.202;2023-02-28T04:01:58;-0.60;99.90
62991;DHT22;49084;48.204;16.202;2023-02-28T04:04:24;-0.80;99.90
62991;DHT22;49084;48.204;16.202;2023-02-28T04:06:51;-0.90;99.90
62991;DHT22;49084;48.204;16.202;2023-02-28T04:09:17;-0.90;99.90
62991;DHT22;49084;48.204;16.202;2023-02-28T04:11:50;-0.90;99.90
62991;DHT22;49084;48.204;16.202;2023-02-28T04:14:17;-1.00;99.90
62991;DHT22;49084;48.204;16.202;2023-02-28T04:16:44;-1.00;99.90
62991;DHT22;49084;48.204;16.202;2023-02-28T04:19:11;-1.00;99.90
62991;DHT22;49084;48.204;16.202;2023-02-28T04:21:45;-0.90;99.90
62991;DHT22;49084;48.204;16.202;2023-02-28T04:24:16;-1.10;99.90
62991;DHT22;49084;48.204;16.202;2023-02-28T04:26:45;-1.20;99.90
62991;DHT22;49084;48.204;16.202;2023-02-28T04:29:12;-1.30;99.90
62991;DHT22;49084;48.204;16.202;2023-02-28T04:31:39;-1.30;99.90
62991;DHT22;49084;48.204;16.202;2023-02-28T04:34:05;-1.30;99.90
62991;DHT22;49084;48.204;16.202;2023-02-28T04:36:31;-1.20;99.90
62991;DHT22;49084;48.204;16.202;2023-02-28T04:38:57;-1.20;99.90
62991;DHT22;49084;48.204;16.202;2023-02-28T04:41:23;-1.30;99.90
62991;DHT22;49084;48.204;16.202;2023-02-28T04:43:50;-1.10;99.90
62991;DHT22;49084;48.204;16.202;2023-02-28T04:46:16;-1.40;99.90
62991;DHT22;49084;48.204;16.202;2023-02-28T04:48:42;-1.30;99.90
62991;DHT22;49084;48.204;16.202;2023-02-28T04:51:11;-1.40;99.90
62991;DHT22;49084;48.204;16.202;2023-02-28T04:53:39;-1.50;99.90
62991;DHT22;49084;48.204;16.202;2023-02-28T04:56:06;-1.50;99.90
62991;DHT22;49084;48.204;16.202;2023-02-28T04:58:33;-1.60;99.90
62991;DHT22;49084;48.204;16.202;2023-02-28T05:01:14;-1.50;99.90
62991;DHT22;49084;48.204;16.202;2023-02-28T05:03:42;-1.40;99.90
62991;DHT22;49084;48.204;16.202;2023-02-28T05:06:09;-1.50;99.90
62991;DHT22;49084;48.204;16.202;2023-02-28T05:08:34;-1.50;99.90
62991;DHT22;49084;48.204;16.202;2023-02-28T05:11:01;-1.40;99.90
62991;DHT22;49084;48.204;16.202;2023-02-28T05:13:27;-1.30;99.90
62991;DHT22;49084;48.204;16.202;2023-02-28T05:15:53;-1.50;99.90
62991;DHT22;49084;48.204;16.202;2023-02-28T05:18:19;-1.10;99.90
62991;DHT22;49084;48.204;16.202;2023-02-28T05:20:45;-1.60;99.90
62991;DHT22;49084;48.204;16.202;2023-02-28T05:23:12;-1.50;99.90
62991;DHT22;49084;48.204;16.202;2023-02-28T05:25:39;-1.70;99.90
62991;DHT22;49084;48.204;16.202;2023-02-28T05:28:05;-1.70;99.90
62991;DHT22;49084;48.204;16.202;2023-02-28T05:30:31;-1.80;99.90
62991;DHT22;49084;48.204;16.202;2023-02-28T05:32:57;-1.80;99.90
62991;DHT22;49084;48.204;16.202;2023-02-28T05:35:23;-1.80;99.90
62991;DHT22;49084;48.204;16.202;2023-02-28T05:37:49;-1.50;99.90
62991;DHT22;49084;48.204;16.202;2023-02-28T05:40:15;-1.80;99.90
62991;DHT22;49084;48.204;16.202;2023-02-28T05:42:41;-1.80;99.90
62991;DHT22;49084;48.204;16.202;2023-02-28T05:45:08;-1.00;99.90
62991;DHT22;49084;48.204;16.202;2023-02-28T05:47:34;-1.90;99.90
62991;DHT22;49084;48.204;16.202;2023-02-28T05:50:00;-1.80;99.90
62991;DHT22;49084;48.204;16.202;2023-02-28T05:52:27;-1.90;99.90
62991;DHT22;49084;48.204;16.202;2023-02-28T05:54:53;-1.80;99.90
62991;DHT22;49084;48.204;16.202;2023-02-28T05:57:19;-1.80;99.90
62991;DHT22;49084;48.204;16.202;2023-02-28T05:59:44;-1.80;99.90
62991;DHT22;49084;48.204;16.202;2023-02-28T06:02:15;-1.80;99.90
62991;DHT22;49084;48.204;16.202;2023-02-28T06:04:42;-1.80;99.90
62991;DHT22;49084;48.204;16.202;2023-02-28T06:07:08;-1.80;99.90
62991;DHT22;49084;48.204;16.202;2023-02-28T06:09:34;-1.80;99.90
62991;DHT22;49084;48.204;16.202;2023-02-28T06:12:01;-1.70;99.90
62991;DHT22;49084;48.204;16.202;2023-02-28T06:14:29;-1.70;99.90
62991;DHT22;49084;48.204;16.202;2023-02-28T06:16:57;-1.70;99.90
62991;DHT22;49084;48.204;16.202;2023-02-28T06:19:23;-1.60;99.90
62991;DHT22;49084;48.204;16.202;2023-02-28T06:21:51;-0.70;99.90
62991;DHT22;49084;48.204;16.202;2023-02-28T06:24:21;-1.30;99.90
62991;DHT22;49084;48.204;16.202;2023-02-28T06:26:47;-0.70;99.90
62991;DHT22;49084;48.204;16.202;2023-02-28T06:29:13;-1.50;99.90
62991;DHT22;49084;48.204;16.202;2023-02-28T06:31:42;-1.40;99.90
62991;DHT22;49084;48.204;16.202;2023-02-28T06:34:09;-1.30;99.90
62991;DHT22;49084;48.204;16.202;2023-02-28T06:36:40;-0.60;99.90
62991;DHT22;49084;48.204;16.202;2023-02-28T06:39:06;-1.20;99.90
62991;DHT22;49084;48.204;16.202;2023-02-28T06:41:32;-1.10;99.90
62991;DHT22;49084;48.204;16.202;2023-02-28T06:44:10;-1.00;99.90
62991;DHT22;49084;48.204;16.202;2023-02-28T06:46:39;-0.90;99.90
62991;DHT22;49084;48.204;16.202;2023-02-28T06:49:04;-0.80;99.90
62991;DHT22;49084;48.204;16.202;2023-02-28T06:51:30;-0.60;99.90
62991;DHT22;49084;48.204;16.202;2023-02-28T06:53:56;-0.50;99.90
62991;DHT22;49084;48.204;16.202;2023-02-28T06:56:21;-0.40;99.90
62991;DHT22;49084;48.204;16.202;2023-02-28T06:58:49;-0.10;99.90
62991;DHT22;49084;48.204;16.202;2023-02-28T07:01:15;-0.20;99.90
62991;DHT22;49084;48.204;16.202;2023-02-28T07:03:41;-0.10;99.90
62991;DHT22;49084;48.204;16.202;2023-02-28T07:06:07;-0.10;99.90
62991;DHT22;49084;48.204;16.202;2023-02-28T07:08:34;0.00;99.90
62991;DHT22;49084;48.204;16.202;2023-02-28T07:11:00;0.10;99.90
62991;DHT22;49084;48.204;16.202;2023-02-28T07:13:25;0.10;99.90
62991;DHT22;49084;48.204;16.202;2023-02-28T07:15:59;0.20;99.90
62991;DHT22;49084;48.204;16.202;2023-02-28T07:18:25;0.20;99.90
62991;DHT22;49084;48.204;16.202;2023-02-28T07:20:51;0.30;99.90
62991;DHT22;49084;48.204;16.202;2023-02-28T07:23:17;0.40;99.90
62991;DHT22;49084;48.204;16.202;2023-02-28T07:25:43;0.40;99.90
62991;DHT22;49084;48.204;16.202;2023-02-28T07:28:09;0.40;99.90
62991;DHT22;49084;48.204;16.202;2023-02-28T07:30:35;0.40;99.90
62991;DHT22;49084;48.204;16.202;2023-02-28T07:33:00;0.40;99.90
62991;DHT22;49084;48.204;16.202;2023-02-28T07:35:26;0.50;99.90
62991;DHT22;49084;48.204;16.202;2023-02-28T07:37:52;0.60;99.90
62991;DHT22;49084;48.204;16.202;2023-02-28T07:40:17;0.70;99.90
62991;DHT22;49084;48.204;16.202;2023-02-28T07:42:43;0.80;99.90
62991;DHT22;49084;48.204;16.202;2023-02-28T07:45:10;1.00;99.90
62991;DHT22;49084;48.204;16.202;2023-02-28T07:47:38;1.10;99.90
62991;DHT22;49084;48.204;16.202;2023-02-28T07:50:05;1.10;99.90
62991;DHT22;49084;48.204;16.202;2023-02-28T07:52:31;1.20;99.90
62991;DHT22;49084;48.204;16.202;2023-02-28T07:54:57;1.30;99.90
62991;DHT22;49084;48.204;16.202;2023-02-28T07:57:23;1.40;99.90
62991;DHT22;49084;48.204;16.202;2023-02-28T07:59:49;1.50;99.90
62991;DHT22;49084;48.204;16.202;2023-02-28T08:02:17;1.50;99.90
62991;DHT22;49084;48.204;16.202;2023-02-28T08:04:43;1.60;99.90
62991;DHT22;49084;48.204;16.202;2023-02-28T08:07:09;1.70;99.90
62991;DHT22;49084;48.204;16.202;2023-02-28T08:09:38;1.60;99.90
62991;DHT22;49084;48.204;16.202;2023-02-28T08:12:04;1.70;99.90
62991;DHT22;49084;48.204;16.202;2023-02-28T08:14:30;1.80;99.90
62991;DHT22;49084;48.204;16.202;2023-02-28T08:16:56;1.90;99.90
62991;DHT22;49084;48.204;16.202;2023-02-28T08:19:22;2.20;99.90
62991;DHT22;49084;48.204;16.202;2023-02-28T08:21:47;2.50;99.90
62991;DHT22;49084;48.204;16.202;2023-02-28T08:24:13;2.80;99.90
62991;DHT22;49084;48.204;16.202;2023-02-28T08:26:38;3.10;99.90
62991;DHT22;49084;48.204;16.202;2023-02-28T08:29:04;3.40;99.90
62991;DHT22;49084;48.204;16.202;2023-02-28T08:31:30;3.60;99.90
62991;DHT22;49084;48.204;16.202;2023-02-28T08:33:55;3.60;99.90
62991;DHT22;49084;48.204;16.202;2023-02-28T08:36:24;3.60;99.90
62991;DHT22;49084;48.204;16.202;2023-02-28T08:38:50;3.60;99.90
62991;DHT22;49084;48.204;16.202;2023-02-28T08:41:16;3.50;99.90
62991;DHT22;49084;48.204;16.202;2023-02-28T08:43:42;3.50;99.90
62991;DHT22;49084;48.204;16.202;2023-02-28T08:46:09;3.10;99.70
62991;DHT22;49084;48.204;16.202;2023-02-28T08:48:36;3.10;99.90
62991;DHT22;49084;48.204;16.202;2023-02-28T08:51:16;3.20;99.80
62991;DHT22;49084;48.204;16.202;2023-02-28T08:53:44;3.00;99.90
62991;DHT22;49084;48.204;16.202;2023-02-28T08:56:12;3.00;99.90
62991;DHT22;49084;48.204;16.202;2023-02-28T08:58:39;3.40;99.90
62991;DHT22;49084;48.204;16.202;2023-02-28T09:01:10;3.70;99.20
62991;DHT22;49084;48.204;16.202;2023-02-28T09:03:36;3.90;99.30
62991;DHT22;49084;48.204;16.202;2023-02-28T09:06:02;4.10;97.80
62991;DHT22;49084;48.204;16.202;2023-02-28T09:08:29;4.00;97.00
62991;DHT22;49084;48.204;16.202;2023-02-28T09:10:55;4.10;97.40
62991;DHT22;49084;48.204;16.202;2023-02-28T09:13:24;4.20;97.00
62991;DHT22;49084;48.204;16.202;2023-02-28T09:15:50;4.70;95.90
62991;DHT22;49084;48.204;16.202;2023-02-28T09:18:16;5.20;95.30
62991;DHT22;49084;48.204;16.202;2023-02-28T09:20:42;5.70;93.50
62991;DHT22;49084;48.204;16.202;2023-02-28T09:23:09;5.80;92.40
62991;DHT22;49084;48.204;16.202;2023-02-28T09:25:35;6.00;91.00
62991;DHT22;49084;48.204;16.202;2023-02-28T09:28:02;6.10;90.60
62991;DHT22;49084;48.204;16.202;2023-02-28T09:30:28;6.10;90.00
62991;DHT22;49084;48.204;16.202;2023-02-28T09:32:54;6.40;89.20
62991;DHT22;49084;48.204;16.202;2023-02-28T09:35:24;6.20;86.50
62991;DHT22;49084;48.204;16.202;2023-02-28T09:37:52;6.50;87.40
62991;DHT22;49084;48.204;16.202;2023-02-28T09:40:20;6.90;84.80
62991;DHT22;49084;48.204;16.202;2023-02-28T09:42:48;6.90;83.80
62991;DHT22;49084;48.204;16.202;2023-02-28T09:45:35;6.40;83.70
62991;DHT22;49084;48.204;16.202;2023-02-28T09:48:10;6.10;85.80
62991;DHT22;49084;48.204;16.202;2023-02-28T09:50:41;6.30;85.20
62991;DHT22;49084;48.204;16.202;2023-02-28T09:53:29;6.30;84.00
62991;DHT22;49084;48.204;16.202;2023-02-28T09:56:15;6.60;86.20
62991;DHT22;49084;48.204;16.202;2023-02-28T09:58:51;7.40;82.90
62991;DHT22;49084;48.204;16.202;2023-02-28T10:06:51;7.20;79.80
62991;DHT22;49084;48.204;16.202;2023-02-28T10:09:23;7.20;79.90
62991;DHT22;49084;48.204;16.202;2023-02-28T10:11:52;7.60;77.70
62991;DHT22;49084;48.204;16.202;2023-02-28T10:14:21;7.20;78.80
62991;DHT22;49084;48.204;16.202;2023-02-28T10:16:55;7.50;77.00
62991;DHT22;49084;48.204;16.202;2023-02-28T10:19:42;8.50;75.30
62991;DHT22;49084;48.204;16.202;2023-02-28T10:22:17;9.60;71.50
62991;DHT22;49084;48.204;16.202;2023-02-28T10:24:48;9.90;67.60
62991;DHT22;49084;48.204;16.202;2023-02-28T10:29:43;8.90;67.90
62991;DHT22;49084;48.204;16.202;2023-02-28T10:32:12;9.30;65.80
62991;DHT22;49084;48.204;16.202;2023-02-28T10:34:39;8.80;67.20
62991;DHT22;49084;48.204;16.202;2023-02-28T10:37:05;9.00;66.50
62991;DHT22;49084;48.204;16.202;2023-02-28T10:39:43;8.60;66.90
62991;DHT22;49084;48.204;16.202;2023-02-28T10:42:27;7.40;69.20
62991;DHT22;49084;48.204;16.202;2023-02-28T10:45:11;6.60;73.00
62991;DHT22;49084;48.204;16.202;2023-02-28T10:58:57;6.80;77.10
62991;DHT22;49084;48.204;16.202;2023-02-28T11:04:01;7.00;77.40
62991;DHT22;49084;48.204;16.202;2023-02-28T11:06:30;7.30;76.70
62991;DHT22;49084;48.204;16.202;2023-02-28T11:09:00;7.10;76.40
62991;DHT22;49084;48.204;16.202;2023-02-28T11:11:28;7.20;75.80
62991;DHT22;49084;48.204;16.202;2023-02-28T11:14:02;7.50;75.50
62991;DHT22;49084;48.204;16.202;2023-02-28T11:16:37;7.70;75.40
62991;DHT22;49084;48.204;16.202;2023-02-28T11:19:06;7.80;74.40
62991;DHT22;49084;48.204;16.202;2023-02-28T11:21:35;7.80;74.00
62991;DHT22;49084;48.204;16.202;2023-02-28T11:26:53;7.70;72.90
62991;DHT22;49084;48.204;16.202;2023-02-28T11:32:12;7.50;74.40
62991;DHT22;49084;48.204;16.202;2023-02-28T11:34:40;7.80;73.80
62991;DHT22;49084;48.204;16.202;2023-02-28T11:37:18;8.10;72.40
62991;DHT22;49084;48.204;16.202;2023-02-28T11:39:45;8.00;73.10
62991;DHT22;49084;48.204;16.202;2023-02-28T11:48:17;7.00;73.50
62991;DHT22;49084;48.204;16.202;2023-02-28T11:51:11;6.70;75.00
62991;DHT22;49084;48.204;16.202;2023-02-28T12:01:45;7.30;74.30
62991;DHT22;49084;48.204;16.202;2023-02-28T12:10:27;7.70;71.60
62991;DHT22;49084;48.204;16.202;2023-02-28T12:26:55;6.40;76.20
62991;DHT22;49084;48.204;16.202;2023-02-28T12:29:23;5.90;77.70
62991;DHT22;49084;48.204;16.202;2023-02-28T12:31:56;6.20;78.40
62991;DHT22;49084;48.204;16.202;2023-02-28T12:34:57;7.10;76.80
62991;DHT22;49084;48.204;16.202;2023-02-28T12:37:41;8.00;72.00
62991;DHT22;49084;48.204;16.202;2023-02-28T12:40:25;8.40;69.90
62991;DHT22;49084;48.204;16.202;2023-02-28T12:42:59;8.70;67.60
62991;DHT22;49084;48.204;16.202;2023-02-28T12:48:00;8.60;65.40
62991;DHT22;49084;48.204;16.202;2023-02-28T12:50:28;8.50;64.30
62991;DHT22;49084;48.204;16.202;2023-02-28T12:56:01;7.70;66.90
62991;DHT22;49084;48.204;16.202;2023-02-28T12:58:36;6.90;68.90
62991;DHT22;49084;48.204;16.202;2023-02-28T13:01:22;6.80;70.10
62991;DHT22;49084;48.204;16.202;2023-02-28T13:09:32;7.20;68.20
62991;DHT22;49084;48.204;16.202;2023-02-28T13:11:58;7.10;69.30
62991;DHT22;49084;48.204;16.202;2023-02-28T13:19:44;6.50;71.20
62991;DHT22;49084;48.204;16.202;2023-02-28T13:22:40;7.70;69.00
62991;DHT22;49084;48.204;16.202;2023-02-28T13:28:11;9.60;61.20
62991;DHT22;49084;48.204;16.202;2023-02-28T13:34:05;9.00;60.80
62991;DHT22;49084;48.204;16.202;2023-02-28T13:36:25;9.50;60.00
62991;DHT22;49084;48.204;16.202;2023-02-28T13:39:02;9.30;59.00
62991;DHT22;49084;48.204;16.202;2023-02-28T13:44:06;9.00;58.80
62991;DHT22;49084;48.204;16.202;2023-02-28T13:46:36;8.70;59.50
62991;DHT22;49084;48.204;16.202;2023-02-28T13:49:28;8.00;61.20
62991;DHT22;49084;48.204;16.202;2023-02-28T14:03:11;6.00;69.30
62991;DHT22;49084;48.204;16.202;2023-02-28T14:05:33;6.00;69.00
62991;DHT22;49084;48.204;16.202;2023-02-28T14:08:15;6.60;68.60
62991;DHT22;49084;48.204;16.202;2023-02-28T14:11:03;6.70;66.80
62991;DHT22;49084;48.204;16.202;2023-02-28T14:13:43;6.80;65.70
62991;DHT22;49084;48.204;16.202;2023-02-28T14:16:11;6.60;66.70
62991;DHT22;49084;48.204;16.202;2023-02-28T14:18:54;6.50;67.30
62991;DHT22;49084;48.204;16.202;2023-02-28T14:21:27;6.20;68.10
62991;DHT22;49084;48.204;16.202;2023-02-28T14:37:14;7.00;66.20
62991;DHT22;49084;48.204;16.202;2023-02-28T14:39:43;6.60;66.50
62991;DHT22;49084;48.204;16.202;2023-02-28T14:44:56;6.10;68.60
62991;DHT22;49084;48.204;16.202;2023-02-28T14:47:22;6.30;69.20
62991;DHT22;49084;48.204;16.202;2023-02-28T14:49:49;7.00;66.70
62991;DHT22;49084;48.204;16.202;2023-02-28T14:52:20;7.30;65.60
62991;DHT22;49084;48.204;16.202;2023-02-28T14:54:46;7.60;64.90
62991;DHT22;49084;48.204;16.202;2023-02-28T14:57:23;7.80;64.40
62991;DHT22;49084;48.204;16.202;2023-02-28T15:02:59;8.00;62.60
62991;DHT22;49084;48.204;16.202;2023-02-28T15:05:33;7.80;63.80
62991;DHT22;49084;48.204;16.202;2023-02-28T15:10:39;7.80;63.80
62991;DHT22;49084;48.204;16.202;2023-02-28T15:13:07;7.50;64.50
62991;DHT22;49084;48.204;16.202;2023-02-28T15:16:10;7.40;64.40
62991;DHT22;49084;48.204;16.202;2023-02-28T15:18:49;6.90;66.20
62991;DHT22;49084;48.204;16.202;2023-02-28T15:24:34;6.70;66.60
62991;DHT22;49084;48.204;16.202;2023-02-28T15:26:36;6.30;67.70
62991;DHT22;49084;48.204;16.202;2023-02-28T15:29:17;6.50;67.90
62991;DHT22;49084;48.204;16.202;2023-02-28T15:31:55;6.50;67.90
62991;DHT22;49084;48.204;16.202;2023-02-28T15:34:37;6.40;68.00
62991;DHT22;49084;48.204;16.202;2023-02-28T15:37:45;6.30;68.40
62991;DHT22;49084;48.204;16.202;2023-02-28T15:40:18;6.20;69.30
62991;DHT22;49084;48.204;16.202;2023-02-28T15:43:03;6.10;68.70
62991;DHT22;49084;48.204;16.202;2023-02-28T15:48:04;5.70;70.50
62991;DHT22;49084;48.204;16.202;2023-02-28T15:50:30;5.50;70.50
62991;DHT22;49084;48.204;16.202;2023-02-28T15:52:56;5.30;71.80
62991;DHT22;49084;48.204;16.202;2023-02-28T15:55:27;5.10;72.30
62991;DHT22;49084;48.204;16.202;2023-02-28T15:57:56;4.90;73.10
62991;DHT22;49084;48.204;16.202;2023-02-28T16:00:26;4.80;74.30
62991;DHT22;49084;48.204;16.202;2023-02-28T16:02:52;4.70;74.80
62991;DHT22;49084;48.204;16.202;2023-02-28T16:05:25;4.70;75.00
62991;DHT22;49084;48.204;16.202;2023-02-28T16:08:14;4.70;75.50
62991;DHT22;49084;48.204;16.202;2023-02-28T16:10:44;4.70;76.20
62991;DHT22;49084;48.204;16.202;2023-02-28T16:13:11;4.60;76.80
62991;DHT22;49084;48.204;16.202;2023-02-28T16:15:43;4.60;77.80
62991;DHT22;49084;48.204;16.202;2023-02-28T16:18:12;4.60;79.30
62991;DHT22;49084;48.204;16.202;2023-02-28T16:20:39;4.70;79.40
62991;DHT22;49084;48.204;16.202;2023-02-28T16:23:05;4.70;78.20
62991;DHT22;49084;48.204;16.202;2023-02-28T16:25:36;4.60;78.00
62991;DHT22;49084;48.204;16.202;2023-02-28T16:28:02;4.60;78.10
62991;DHT22;49084;48.204;16.202;2023-02-28T16:30:29;4.60;78.60
62991;DHT22;49084;48.204;16.202;2023-02-28T16:32:57;4.60;78.50
62991;DHT22;49084;48.204;16.202;2023-02-28T16:35:23;4.60;79.30
62991;DHT22;49084;48.204;16.202;2023-02-28T16:37:51;4.60;80.20
62991;DHT22;49084;48.204;16.202;2023-02-28T16:40:22;4.60;80.30
62991;DHT22;49084;48.204;16.202;2023-02-28T16:42:50;4.60;81.30
62991;DHT22;49084;48.204;16.202;2023-02-28T16:45:27;4.60;82.90
62991;DHT22;49084;48.204;16.202;2023-02-28T16:47:53;4.50;82.50
62991;DHT22;49084;48.204;16.202;2023-02-28T16:50:22;4.40;82.90
62991;DHT22;49084;48.204;16.202;2023-02-28T16:52:49;4.30;83.00
62991;DHT22;49084;48.204;16.202;2023-02-28T16:55:15;4.30;83.90
62991;DHT22;49084;48.204;16.202;2023-02-28T16:57:42;4.30;84.50
62991;DHT22;49084;48.204;16.202;2023-02-28T17:00:11;4.20;86.90
62991;DHT22;49084;48.204;16.202;2023-02-28T17:02:38;4.10;90.10
62991;DHT22;49084;48.204;16.202;2023-02-28T17:05:04;4.00;91.50
62991;DHT22;49084;48.204;16.202;2023-02-28T17:07:30;3.90;93.60
62991;DHT22;49084;48.204;16.202;2023-02-28T17:09:56;3.70;95.00
62991;DHT22;49084;48.204;16.202;2023-02-28T17:12:22;3.60;96.40
62991;DHT22;49084;48.204;16.202;2023-02-28T17:14:47;3.50;97.50
62991;DHT22;49084;48.204;16.202;2023-02-28T17:17:18;3.30;99.50
62991;DHT22;49084;48.204;16.202;2023-02-28T17:19:45;3.20;99.90
62991;DHT22;49084;48.204;16.202;2023-02-28T17:22:11;3.00;99.90
62991;DHT22;49084;48.204;16.202;2023-02-28T17:24:37;2.90;99.90
62991;DHT22;49084;48.204;16.202;2023-02-28T17:27:03;2.80;99.90
62991;DHT22;49084;48.204;16.202;2023-02-28T17:29:29;2.60;99.90
62991;DHT22;49084;48.204;16.202;2023-02-28T17:31:55;2.50;99.90
62991;DHT22;49084;48.204;16.202;2023-02-28T17:34:21;2.40;99.90
62991;DHT22;49084;48.204;16.202;2023-02-28T17:36:49;2.30;99.90
62991;DHT22;49084;48.204;16.202;2023-02-28T17:39:17;2.10;99.90
62991;DHT22;49084;48.204;16.202;2023-02-28T17:41:53;2.00;99.90
62991;DHT22;49084;48.204;16.202;2023-02-28T17:44:21;1.90;99.90
62991;DHT22;49084;48.204;16.202;2023-02-28T17:46:48;1.80;99.90
62991;DHT22;49084;48.204;16.202;2023-02-28T17:49:15;1.80;99.90
62991;DHT22;49084;48.204;16.202;2023-02-28T17:51:41;1.70;99.90
62991;DHT22;49084;48.204;16.202;2023-02-28T17:54:07;1.60;99.90
62991;DHT22;49084;48.204;16.202;2023-02-28T17:56:33;1.50;99.90
62991;DHT22;49084;48.204;16.202;2023-02-28T17:58:59;1.50;99.90
62991;DHT22;49084;48.204;16.202;2023-02-28T18:01:26;1.50;99.90
62991;DHT22;49084;48.204;16.202;2023-02-28T18:03:52;1.40;99.90
62991;DHT22;49084;48.204;16.202;2023-02-28T18:06:24;1.40;99.90
62991;DHT22;49084;48.204;16.202;2023-02-28T18:08:51;1.20;99.90
62991;DHT22;49084;48.204;16.202;2023-02-28T18:11:19;1.20;99.90
62991;DHT22;49084;48.204;16.202;2023-02-28T18:13:47;1.10;99.90